createdAt,value
2023-04-25T04:00:28.508Z,4.00
2023-04-25T04:05:28.476Z,12.00
2023-04-25T04:10:28.391Z,36.00
2023-04-25T04:15:35.414Z,76.00
2023-04-25T04:20:28.265Z,160.00
2023-04-25T04:25:28.239Z,304.00
2023-04-25T04:30:28.183Z,488.00
2023-04-25T04:35:28.134Z,284.00
2023-04-25T04:40:28.080Z,428.00
2023-04-25T04:45:28.008Z,860.00
2023-04-25T04:50:27.977Z,852.00
2023-04-25T04:55:27.919Z,2076.00
2023-04-25T05:00:29.652Z,2356.00
2023-04-25T05:05:27.793Z,3588.00
2023-04-25T05:10:27.746Z,3208.00
2023-04-25T05:15:27.717Z,3448.00
2023-04-25T05:20:27.642Z,7792.00
2023-04-25T05:25:27.591Z,8868.00
2023-04-25T05:30:27.555Z,20512.00
2023-04-25T05:35:27.526Z,28768.00
2023-04-25T05:40:27.431Z,19808.00
2023-04-25T05:45:27.370Z,28032.00
2023-04-25T05:50:27.307Z,10884.00
2023-04-25T05:55:27.303Z,27392.00
2023-04-25T06:00:27.193Z,7976.00
2023-04-25T06:05:27.398Z,7576.00
2023-04-25T06:10:27.118Z,8440.00
2023-04-25T06:15:28.840Z,13592.00
2023-04-25T06:20:26.996Z,9364.00
2023-04-25T06:25:26.970Z,13540.00
2023-04-25T06:30:26.880Z,13272.00
2023-04-25T06:35:26.877Z,10932.00
2023-04-25T06:40:26.867Z,18496.00
2023-04-25T06:45:26.710Z,16864.00
2023-04-25T06:50:26.711Z,13744.00
2023-04-25T06:55:26.675Z,9344.00
2023-04-25T07:00:26.569Z,8828.00
2023-04-25T07:05:26.490Z,8604.00
2023-04-25T07:10:26.490Z,20544.00
2023-04-25T07:15:26.414Z,21024.00
2023-04-25T07:20:26.835Z,8396.00
2023-04-25T07:25:26.274Z,14152.00
2023-04-25T07:30:26.229Z,7068.00
2023-04-25T07:35:26.238Z,13844.00
2023-04-25T07:40:26.113Z,15680.00
2023-04-25T07:45:26.057Z,17056.00
2023-04-25T07:50:26.000Z,5216.00
2023-04-25T07:55:25.961Z,5956.00
2023-04-25T08:00:25.924Z,13532.00
2023-04-25T08:05:26.018Z,7252.00
2023-04-25T08:10:25.787Z,6616.00
2023-04-25T08:15:25.751Z,5828.00
2023-04-25T08:20:25.687Z,5796.00
2023-04-25T08:25:25.611Z,6112.00
2023-04-25T08:30:25.571Z,6840.00
2023-04-25T08:35:25.593Z,8676.00
2023-04-25T08:40:25.464Z,9692.00
2023-04-25T08:45:25.408Z,6472.00
2023-04-25T08:50:25.371Z,7128.00
2023-04-25T08:55:25.407Z,9856.00
2023-04-25T09:00:25.245Z,11560.00
2023-04-25T09:05:25.185Z,6900.00
2023-04-25T09:10:25.130Z,5764.00
2023-04-25T09:15:25.097Z,6656.00
2023-04-25T09:20:25.023Z,7144.00
2023-04-25T09:25:24.973Z,7592.00
2023-04-25T09:30:24.902Z,10104.00
2023-04-25T09:35:24.882Z,10436.00
2023-04-25T09:40:24.795Z,7468.00
2023-04-25T09:45:24.741Z,9120.00
2023-04-25T09:50:24.686Z,8588.00
2023-04-25T09:55:24.658Z,6508.00
2023-04-25T10:00:24.743Z,5168.00
2023-04-25T10:05:24.510Z,5876.00
2023-04-25T10:10:24.465Z,6912.00
2023-04-25T10:15:24.525Z,10060.00
2023-04-25T10:20:31.406Z,9008.00
2023-04-25T10:25:24.309Z,9900.00
2023-04-25T10:30:24.268Z,9068.00
2023-04-25T10:35:24.208Z,8840.00
2023-04-25T10:40:24.566Z,7292.00
2023-04-25T10:45:24.076Z,7648.00
2023-04-25T10:50:24.035Z,7544.00
2023-04-25T10:55:23.989Z,8888.00
2023-04-25T11:00:25.843Z,8908.00
2023-04-25T11:05:24.859Z,8116.00
2023-04-25T11:10:23.795Z,7400.00
2023-04-25T11:15:24.188Z,7560.00
2023-04-25T11:20:23.699Z,8344.00
2023-04-25T11:25:23.658Z,10884.00
2023-04-25T11:30:23.609Z,11892.00
2023-04-25T11:35:23.595Z,9360.00
2023-04-25T11:40:23.478Z,7988.00
2023-04-25T11:45:23.427Z,6572.00
2023-04-25T11:50:23.372Z,9092.00
2023-04-25T11:55:23.441Z,10840.00
2023-04-25T12:00:23.326Z,9392.00
2023-04-25T12:10:23.141Z,6452.00
2023-04-25T12:15:23.135Z,7136.00
2023-04-25T12:20:23.048Z,10768.00
2023-04-25T12:25:22.995Z,8164.00
2023-04-25T12:30:22.941Z,7468.00
2023-04-25T12:35:22.910Z,7040.00
2023-04-25T12:40:22.833Z,6404.00
2023-04-25T12:45:22.773Z,4552.00
2023-04-25T12:50:22.747Z,2880.00
2023-04-25T12:55:22.775Z,2032.00
2023-04-25T13:00:23.308Z,1972.00
2023-04-25T13:05:22.558Z,3636.00
2023-04-25T13:10:22.489Z,6524.00
2023-04-25T13:15:22.468Z,7100.00
2023-04-25T13:20:22.401Z,8752.00
2023-04-25T13:25:22.350Z,8304.00
2023-04-25T13:30:22.277Z,7460.00
2023-04-25T13:35:22.266Z,7188.00
2023-04-25T13:40:24.020Z,4432.00
2023-04-25T13:45:22.129Z,4648.00
2023-04-25T13:50:22.294Z,5564.00
2023-04-25T13:55:22.038Z,6404.00
2023-04-25T14:00:21.979Z,7244.00
2023-04-25T14:05:21.883Z,10004.00
2023-04-25T14:10:21.839Z,7020.00
2023-04-25T14:15:21.861Z,3196.00
2023-04-25T14:20:21.734Z,2752.00
2023-04-25T14:25:21.685Z,4156.00
2023-04-25T14:30:21.665Z,5428.00
2023-04-25T14:35:21.578Z,6704.00
2023-04-25T14:40:21.520Z,7560.00
2023-04-25T14:45:21.461Z,5784.00
2023-04-25T14:50:21.425Z,4344.00
2023-04-25T14:55:21.377Z,6020.00
2023-04-25T15:00:21.294Z,3496.00
2023-04-25T15:05:21.249Z,4016.00
2023-04-25T15:10:21.196Z,4520.00
2023-04-25T15:15:26.553Z,4408.00
2023-04-25T15:20:22.115Z,4260.00
2023-04-25T15:25:21.033Z,6532.00
2023-04-25T15:30:20.997Z,6292.00
2023-04-25T15:35:20.953Z,3132.00
2023-04-25T15:40:20.882Z,1624.00
2023-04-25T15:45:20.806Z,1340.00
2023-04-25T15:50:20.779Z,3520.00
2023-04-25T15:55:20.848Z,3904.00
2023-04-25T16:00:20.843Z,4224.00
2023-04-25T16:05:20.833Z,4484.00
2023-04-25T16:10:20.547Z,6128.00
2023-04-25T16:15:20.543Z,5544.00
2023-04-25T16:20:20.423Z,5004.00
2023-04-25T16:25:20.386Z,3588.00
2023-04-25T16:30:20.337Z,2988.00
2023-04-25T16:35:20.394Z,2412.00
2023-04-25T16:40:20.229Z,2364.00
2023-04-25T16:45:20.247Z,2360.00
2023-04-25T16:50:20.109Z,2056.00
2023-04-25T16:55:20.089Z,1776.00
2023-04-25T17:00:20.006Z,1540.00
2023-04-25T17:05:19.951Z,1412.00
2023-04-25T17:10:19.899Z,1288.00
2023-04-25T17:15:19.880Z,596.00
2023-04-25T17:20:19.782Z,1032.00
2023-04-25T17:25:19.752Z,976.00
2023-04-25T17:30:19.699Z,900.00
2023-04-25T17:35:19.678Z,940.00
2023-04-25T17:40:19.571Z,1072.00
2023-04-25T17:45:19.575Z,1092.00
2023-04-25T17:50:19.463Z,908.00
2023-04-25T17:55:19.450Z,756.00
2023-04-25T18:00:19.366Z,672.00
2023-04-25T18:05:19.775Z,576.00
2023-04-25T18:10:19.252Z,500.00
2023-04-25T18:15:19.238Z,420.00
2023-04-25T18:20:19.167Z,360.00
2023-04-25T18:25:19.092Z,288.00
2023-04-25T18:30:19.057Z,224.00
2023-04-25T18:35:19.089Z,144.00
2023-04-25T18:40:18.950Z,88.00
2023-04-25T18:45:18.880Z,64.00
2023-04-25T18:50:18.953Z,40.00
2023-04-25T18:55:18.805Z,24.00
2023-04-25T19:00:18.751Z,16.00
2023-04-25T19:05:18.667Z,8.00
2023-04-25T19:10:18.651Z,4.00
2023-04-25T19:15:18.611Z,0.00
2023-04-25T19:20:18.527Z,0.00
2023-04-25T19:25:18.468Z,0.00
2023-04-25T19:30:18.417Z,0.00
2023-04-25T19:35:18.402Z,0.00
2023-04-25T19:40:18.313Z,0.00
2023-04-25T19:45:18.267Z,0.00
2023-04-25T19:50:18.200Z,0.00
2023-04-25T19:55:18.189Z,0.00
2023-04-25T20:00:19.958Z,0.00
2023-04-25T20:05:18.038Z,0.00
2023-04-25T20:10:18.186Z,0.00
2023-04-25T20:15:17.984Z,0.00
2023-04-25T20:20:17.885Z,0.00
2023-04-25T20:25:17.830Z,0.00
2023-04-25T20:30:17.767Z,0.00
2023-04-25T20:35:17.752Z,0.00
2023-04-25T20:40:17.662Z,0.00
2023-04-25T20:45:17.617Z,0.00
2023-04-25T20:50:17.558Z,0.00
2023-04-25T20:55:17.530Z,0.00
2023-04-25T21:00:17.458Z,0.00
2023-04-25T21:05:17.403Z,0.00
2023-04-25T21:10:17.361Z,0.00
2023-04-25T21:15:17.310Z,0.00
2023-04-25T21:20:17.255Z,0.00
2023-04-25T21:25:17.197Z,0.00
2023-04-25T21:30:17.142Z,0.00
2023-04-25T21:35:17.110Z,0.00
2023-04-25T21:40:17.055Z,0.00
2023-04-25T21:45:16.983Z,0.00
2023-04-25T21:50:16.932Z,0.00
2023-04-25T21:55:16.893Z,0.00
2023-04-25T22:00:16.825Z,0.00
2023-04-25T22:05:16.785Z,0.00
2023-04-25T22:10:16.723Z,0.00
2023-04-25T22:15:16.681Z,0.00
2023-04-25T22:20:16.609Z,0.00
2023-04-25T22:25:16.556Z,0.00
2023-04-25T22:30:16.508Z,0.00
2023-04-25T22:35:16.455Z,0.00
2023-04-25T22:40:16.406Z,0.00
2023-04-25T22:45:16.338Z,0.00
2023-04-25T22:50:16.283Z,0.00
2023-04-25T22:55:16.268Z,0.00
2023-04-25T23:00:16.469Z,0.00
2023-04-25T23:05:16.125Z,0.00
2023-04-25T23:10:16.065Z,0.00
2023-04-25T23:15:16.052Z,0.00
2023-04-25T23:20:15.968Z,0.00
2023-04-25T23:25:15.908Z,0.00
